sensor_id;sensor_type;location;lat;lon;timestamp;pressure;altitude;pressure_sealevel;temperature;humidity
10097;BME280;5087;42.662;23.466;2023-04-25T00:00:26;94710.59;;;9.69;100.00
10097;BME280;5087;42.662;23.466;2023-04-25T00:02:53;94695.56;;;9.41;100.00
10097;BME280;5087;42.662;23.466;2023-04-25T00:05:21;94695.78;;;9.36;100.00
10097;BME280;5087;42.662;23.466;2023-04-25T00:07:48;94700.22;;;9.32;100.00
10097;BME280;5087;42.662;23.466;2023-04-25T00:10:16;94682.09;;;9.24;100.00
10097;BME280;5087;42.662;23.466;2023-04-25T00:12:44;94682.41;;;9.31;100.00
10097;BME280;5087;42.662;23.466;2023-04-25T00:15:11;94658.25;;;9.08;100.00
10097;BME280;5087;42.662;23.466;2023-04-25T00:17:39;94686.88;;;9.27;100.00
10097;BME280;5087;42.662;23.466;2023-04-25T00:20:07;94661.25;;;9.24;100.00
10097;BME280;5087;42.662;23.466;2023-04-25T00:22:35;94671.59;;;9.31;100.00
10097;BME280;5087;42.662;23.466;2023-04-25T00:25:04;94668.41;;;9.29;100.00
10097;BME280;5087;42.662;23.466;2023-04-25T00:27:31;94662.34;;;9.23;100.00
10097;BME280;5087;42.662;23.466;2023-04-25T00:30:00;94664.44;;;9.26;100.00
10097;BME280;5087;42.662;23.466;2023-04-25T00:32:28;94639.94;;;9.14;100.00
10097;BME280;5087;42.662;23.466;2023-04-25T00:34:56;94614.03;;;9.04;100.00
10097;BME280;5087;42.662;23.466;2023-04-25T00:37:24;94633.06;;;9.16;100.00
10097;BME280;5087;42.662;23.466;2023-04-25T00:39:52;94627.19;;;9.14;100.00
10097;BME280;5087;42.662;23.466;2023-04-25T00:42:21;94587.31;;;8.94;100.00
10097;BME280;5087;42.662;23.466;2023-04-25T00:44:49;94608.09;;;9.11;100.00
10097;BME280;5087;42.662;23.466;2023-04-25T00:47:18;94607.78;;;9.12;100.00
10097;BME280;5087;42.662;23.466;2023-04-25T00:49:46;94607.31;;;9.10;100.00
10097;BME280;5087;42.662;23.466;2023-04-25T00:52:13;94605.25;;;9.07;100.00
10097;BME280;5087;42.662;23.466;2023-04-25T00:54:41;94602.34;;;9.12;100.00
10097;BME280;5087;42.662;23.466;2023-04-25T00:57:09;94602.06;;;9.05;100.00
10097;BME280;5087;42.662;23.466;2023-04-25T00:59:37;94592.97;;;9.10;100.00
10097;BME280;5087;42.662;23.466;2023-04-25T01:02:05;94597.78;;;9.04;100.00
10097;BME280;5087;42.662;23.466;2023-04-25T01:04:34;94598.13;;;8.94;100.00
10097;BME280;5087;42.662;23.466;2023-04-25T01:07:01;94588.72;;;9.00;100.00
10097;BME280;5087;42.662;23.466;2023-04-25T01:09:30;94594.59;;;9.02;100.00
10097;BME280;5087;42.662;23.466;2023-04-25T01:11:58;94568.22;;;8.90;100.00
10097;BME280;5087;42.662;23.466;2023-04-25T01:14:25;94581.88;;;8.94;100.00
10097;BME280;5087;42.662;23.466;2023-04-25T01:16:53;94586.84;;;8.92;100.00
10097;BME280;5087;42.662;23.466;2023-04-25T01:19:20;94592.63;;;8.81;100.00
10097;BME280;5087;42.662;23.466;2023-04-25T01:21:50;94584.22;;;8.74;100.00
10097;BME280;5087;42.662;23.466;2023-04-25T01:24:17;94575.81;;;8.67;100.00
10097;BME280;5087;42.662;23.466;2023-04-25T01:26:45;94578.03;;;8.65;100.00
10097;BME280;5087;42.662;23.466;2023-04-25T01:29:20;94582.31;;;8.66;100.00
10097;BME280;5087;42.662;23.466;2023-04-25T01:31:47;94577.91;;;8.52;100.00
10097;BME280;5087;42.662;23.466;2023-04-25T01:34:15;94581.06;;;8.54;100.00
10097;BME280;5087;42.662;23.466;2023-04-25T01:36:42;94580.16;;;8.50;100.00
10097;BME280;5087;42.662;23.466;2023-04-25T01:39:11;94574.88;;;8.54;100.00
10097;BME280;5087;42.662;23.466;2023-04-25T01:41:38;94563.44;;;8.48;100.00
10097;BME280;5087;42.662;23.466;2023-04-25T01:44:06;94561.38;;;8.45;100.00
10097;BME280;5087;42.662;23.466;2023-04-25T01:46:33;94574.25;;;8.48;100.00
10097;BME280;5087;42.662;23.466;2023-04-25T01:49:01;94577.44;;;8.42;100.00
10097;BME280;5087;42.662;23.466;2023-04-25T01:51:28;94562.97;;;8.37;100.00
10097;BME280;5087;42.662;23.466;2023-04-25T01:53:56;94565.38;;;8.39;100.00
10097;BME280;5087;42.662;23.466;2023-04-25T01:56:30;94558.66;;;8.36;100.00
10097;BME280;5087;42.662;23.466;2023-04-25T01:58:57;94570.94;;;8.34;100.00
10097;BME280;5087;42.662;23.466;2023-04-25T02:01:41;94573.81;;;8.29;100.00
10097;BME280;5087;42.662;23.466;2023-04-25T02:04:24;94573.66;;;8.25;100.00
10097;BME280;5087;42.662;23.466;2023-04-25T02:06:51;94581.44;;;8.27;100.00
10097;BME280;5087;42.662;23.466;2023-04-25T02:09:18;94563.66;;;8.17;100.00
10097;BME280;5087;42.662;23.466;2023-04-25T02:11:53;94582.59;;;8.17;100.00
10097;BME280;5087;42.662;23.466;2023-04-25T02:14:32;94579.88;;;8.17;100.00
10097;BME280;5087;42.662;23.466;2023-04-25T02:17:12;94546.81;;;7.93;100.00
10097;BME280;5087;42.662;23.466;2023-04-25T02:19:40;94582.91;;;8.15;100.00
10097;BME280;5087;42.662;23.466;2023-04-25T02:22:07;94567.16;;;8.08;100.00
10097;BME280;5087;42.662;23.466;2023-04-25T02:24:34;94563.81;;;8.20;100.00
10097;BME280;5087;42.662;23.466;2023-04-25T02:27:03;94566.81;;;8.28;100.00
10097;BME280;5087;42.662;23.466;2023-04-25T02:29:30;94565.09;;;8.14;100.00
10097;BME280;5087;42.662;23.466;2023-04-25T02:31:57;94544.44;;;8.10;100.00
10097;BME280;5087;42.662;23.466;2023-04-25T02:34:25;94549.34;;;8.07;100.00
10097;BME280;5087;42.662;23.466;2023-04-25T02:36:53;94523.63;;;7.92;100.00
10097;BME280;5087;42.662;23.466;2023-04-25T02:39:20;94543.75;;;8.13;100.00
10097;BME280;5087;42.662;23.466;2023-04-25T02:41:51;94531.69;;;8.10;100.00
10097;BME280;5087;42.662;23.466;2023-04-25T02:44:19;94538.50;;;8.16;100.00
10097;BME280;5087;42.662;23.466;2023-04-25T02:46:47;94537.84;;;8.28;100.00
10097;BME280;5087;42.662;23.466;2023-04-25T02:49:16;94546.50;;;8.04;100.00
10097;BME280;5087;42.662;23.466;2023-04-25T02:51:44;94529.50;;;8.03;100.00
10097;BME280;5087;42.662;23.466;2023-04-25T02:54:11;94544.03;;;8.37;100.00
10097;BME280;5087;42.662;23.466;2023-04-25T02:56:42;94533.09;;;8.16;100.00
10097;BME280;5087;42.662;23.466;2023-04-25T02:59:15;94543.88;;;8.34;100.00
10097;BME280;5087;42.662;23.466;2023-04-25T03:01:44;94531.63;;;8.45;100.00
10097;BME280;5087;42.662;23.466;2023-04-25T03:04:11;94532.13;;;8.30;100.00
10097;BME280;5087;42.662;23.466;2023-04-25T03:06:38;94532.63;;;8.23;100.00
10097;BME280;5087;42.662;23.466;2023-04-25T03:09:05;94523.47;;;7.98;100.00
10097;BME280;5087;42.662;23.466;2023-04-25T03:11:33;94528.22;;;7.92;100.00
10097;BME280;5087;42.662;23.466;2023-04-25T03:14:01;94539.84;;;7.92;100.00
10097;BME280;5087;42.662;23.466;2023-04-25T03:16:29;94539.84;;;7.84;100.00
10097;BME280;5087;42.662;23.466;2023-04-25T03:18:59;94546.19;;;7.97;100.00
10097;BME280;5087;42.662;23.466;2023-04-25T03:21:26;94538.72;;;7.93;100.00
10097;BME280;5087;42.662;23.466;2023-04-25T03:23:53;94530.28;;;7.86;100.00
10097;BME280;5087;42.662;23.466;2023-04-25T03:26:21;94539.34;;;7.82;100.00
10097;BME280;5087;42.662;23.466;2023-04-25T03:28:48;94531.75;;;7.75;100.00
10097;BME280;5087;42.662;23.466;2023-04-25T03:31:16;94538.09;;;7.79;100.00
10097;BME280;5087;42.662;23.466;2023-04-25T03:33:43;94547.47;;;7.73;100.00
10097;BME280;5087;42.662;23.466;2023-04-25T03:36:12;94550.81;;;7.79;100.00
10097;BME280;5087;42.662;23.466;2023-04-25T03:38:39;94543.97;;;7.99;100.00
10097;BME280;5087;42.662;23.466;2023-04-25T03:41:08;94541.91;;;7.87;100.00
10097;BME280;5087;42.662;23.466;2023-04-25T03:43:42;94521.25;;;7.82;100.00
10097;BME280;5087;42.662;23.466;2023-04-25T03:46:12;94507.59;;;7.79;100.00
10097;BME280;5087;42.662;23.466;2023-04-25T03:48:40;94529.34;;;8.00;100.00
10097;BME280;5087;42.662;23.466;2023-04-25T03:51:11;94541.88;;;8.13;100.00
10097;BME280;5087;42.662;23.466;2023-04-25T03:53:42;94528.19;;;8.01;100.00
10097;BME280;5087;42.662;23.466;2023-04-25T03:56:15;94528.84;;;8.06;100.00
10097;BME280;5087;42.662;23.466;2023-04-25T03:58:44;94527.38;;;8.27;100.00
10097;BME280;5087;42.662;23.466;2023-04-25T04:01:14;94527.03;;;8.37;100.00
10097;BME280;5087;42.662;23.466;2023-04-25T04:03:42;94529.81;;;8.67;100.00
10097;BME280;5087;42.662;23.466;2023-04-25T04:06:09;94527.75;;;8.64;100.00
10097;BME280;5087;42.662;23.466;2023-04-25T04:08:41;94534.25;;;9.01;100.00
10097;BME280;5087;42.662;23.466;2023-04-25T04:11:10;94538.22;;;9.04;100.00
10097;BME280;5087;42.662;23.466;2023-04-25T04:13:37;94537.09;;;9.05;100.00
10097;BME280;5087;42.662;23.466;2023-04-25T04:16:05;94530.91;;;9.26;100.00
10097;BME280;5087;42.662;23.466;2023-04-25T04:18:33;94542.28;;;9.40;100.00
10097;BME280;5087;42.662;23.466;2023-04-25T04:21:01;94542.97;;;9.37;100.00
10097;BME280;5087;42.662;23.466;2023-04-25T04:23:32;94550.81;;;9.72;100.00
10097;BME280;5087;42.662;23.466;2023-04-25T04:26:01;94552.91;;;9.88;100.00
10097;BME280;5087;42.662;23.466;2023-04-25T04:28:51;94541.16;;;9.41;100.00
10097;BME280;5087;42.662;23.466;2023-04-25T04:31:34;94545.78;;;9.19;100.00
10097;BME280;5087;42.662;23.466;2023-04-25T04:34:03;94548.75;;;9.27;100.00
10097;BME280;5087;42.662;23.466;2023-04-25T04:36:30;94547.44;;;9.03;100.00
10097;BME280;5087;42.662;23.466;2023-04-25T04:38:58;94545.88;;;9.02;100.00
10097;BME280;5087;42.662;23.466;2023-04-25T04:41:37;94547.44;;;9.03;100.00
10097;BME280;5087;42.662;23.466;2023-04-25T04:44:25;94541.25;;;9.02;100.00
10097;BME280;5087;42.662;23.466;2023-04-25T04:47:22;94530.44;;;9.02;100.00
10097;BME280;5087;42.662;23.466;2023-04-25T04:50:10;94528.84;;;9.01;100.00
10097;BME280;5087;42.662;23.466;2023-04-25T04:53:12;94532.28;;;9.11;100.00
10097;BME280;5087;42.662;23.466;2023-04-25T04:56:01;94540.63;;;9.27;100.00
10097;BME280;5087;42.662;23.466;2023-04-25T04:58:50;94538.75;;;9.18;100.00
10097;BME280;5087;42.662;23.466;2023-04-25T05:01:56;94534.03;;;9.15;100.00
10097;BME280;5087;42.662;23.466;2023-04-25T05:04:41;94548.53;;;9.11;100.00
10097;BME280;5087;42.662;23.466;2023-04-25T05:07:45;94541.00;;;9.16;100.00
10097;BME280;5087;42.662;23.466;2023-04-25T05:10:31;94539.59;;;9.10;100.00
10097;BME280;5087;42.662;23.466;2023-04-25T05:13:11;94553.56;;;9.21;100.00
10097;BME280;5087;42.662;23.466;2023-04-25T05:16:00;94532.72;;;8.92;100.00
10097;BME280;5087;42.662;23.466;2023-04-25T05:18:47;94554.09;;;9.14;100.00
10097;BME280;5087;42.662;23.466;2023-04-25T05:21:40;94557.38;;;8.99;100.00
10097;BME280;5087;42.662;23.466;2023-04-25T05:24:33;94549.97;;;9.08;100.00
10097;BME280;5087;42.662;23.466;2023-04-25T05:27:01;94561.09;;;9.15;100.00
10097;BME280;5087;42.662;23.466;2023-04-25T05:29:37;94541.00;;;9.16;100.00
10097;BME280;5087;42.662;23.466;2023-04-25T05:32:24;94565.59;;;9.32;100.00
10097;BME280;5087;42.662;23.466;2023-04-25T05:34:52;94575.34;;;9.25;100.00
10097;BME280;5087;42.662;23.466;2023-04-25T05:37:26;94570.97;;;9.11;100.00
10097;BME280;5087;42.662;23.466;2023-04-25T05:40:03;94564.88;;;9.23;100.00
10097;BME280;5087;42.662;23.466;2023-04-25T05:43:05;94549.44;;;9.45;100.00
10097;BME280;5087;42.662;23.466;2023-04-25T05:45:47;94559.53;;;9.57;100.00
10097;BME280;5087;42.662;23.466;2023-04-25T05:48:34;94562.69;;;9.38;100.00
10097;BME280;5087;42.662;23.466;2023-04-25T05:51:15;94572.13;;;9.82;100.00
10097;BME280;5087;42.662;23.466;2023-04-25T05:54:07;94569.13;;;9.75;100.00
10097;BME280;5087;42.662;23.466;2023-04-25T05:56:35;94573.69;;;9.84;100.00
10097;BME280;5087;42.662;23.466;2023-04-25T05:59:02;94565.34;;;9.89;100.00
10097;BME280;5087;42.662;23.466;2023-04-25T06:01:30;94563.78;;;9.88;100.00
10097;BME280;5087;42.662;23.466;2023-04-25T06:03:58;94545.59;;;9.67;100.00
10097;BME280;5087;42.662;23.466;2023-04-25T06:06:25;94560.31;;;9.78;100.00
10097;BME280;5087;42.662;23.466;2023-04-25T06:08:53;94545.22;;;9.56;100.00
10097;BME280;5087;42.662;23.466;2023-04-25T06:11:21;94557.69;;;9.70;100.00
10097;BME280;5087;42.662;23.466;2023-04-25T06:13:48;94557.63;;;9.78;100.00
10097;BME280;5087;42.662;23.466;2023-04-25T06:16:16;94553.75;;;9.67;100.00
10097;BME280;5087;42.662;23.466;2023-04-25T06:18:43;94516.19;;;9.57;100.00
10097;BME280;5087;42.662;23.466;2023-04-25T06:21:11;94552.31;;;10.03;100.00
10097;BME280;5087;42.662;23.466;2023-04-25T06:23:39;94556.88;;;9.90;100.00
10097;BME280;5087;42.662;23.466;2023-04-25T06:26:10;94552.16;;;10.21;100.00
10097;BME280;5087;42.662;23.466;2023-04-25T06:28:41;94550.66;;;10.44;100.00
10097;BME280;5087;42.662;23.466;2023-04-25T06:31:09;94561.53;;;10.69;100.00
10097;BME280;5087;42.662;23.466;2023-04-25T06:33:38;94562.69;;;10.81;100.00
10097;BME280;5087;42.662;23.466;2023-04-25T06:36:05;94554.81;;;11.13;100.00
10097;BME280;5087;42.662;23.466;2023-04-25T06:38:34;94547.31;;;10.85;100.00
10097;BME280;5087;42.662;23.466;2023-04-25T06:41:02;94550.91;;;10.64;100.00
10097;BME280;5087;42.662;23.466;2023-04-25T06:43:32;94544.13;;;10.70;100.00
10097;BME280;5087;42.662;23.466;2023-04-25T06:46:16;94548.69;;;11.28;100.00
10097;BME280;5087;42.662;23.466;2023-04-25T06:48:46;94564.28;;;10.82;100.00
10097;BME280;5087;42.662;23.466;2023-04-25T06:51:13;94561.00;;;10.88;100.00
10097;BME280;5087;42.662;23.466;2023-04-25T06:53:43;94557.16;;;11.39;100.00
10097;BME280;5087;42.662;23.466;2023-04-25T06:56:19;94558.81;;;11.68;100.00
10097;BME280;5087;42.662;23.466;2023-04-25T06:58:55;94559.13;;;11.79;100.00
10097;BME280;5087;42.662;23.466;2023-04-25T07:01:36;94548.47;;;12.15;100.00
10097;BME280;5087;42.662;23.466;2023-04-25T07:04:09;94553.91;;;12.15;100.00
10097;BME280;5087;42.662;23.466;2023-04-25T07:06:41;94550.34;;;12.27;100.00
10097;BME280;5087;42.662;23.466;2023-04-25T07:09:10;94544.88;;;12.87;100.00
10097;BME280;5087;42.662;23.466;2023-04-25T07:11:42;94536.41;;;13.24;100.00
10097;BME280;5087;42.662;23.466;2023-04-25T07:14:09;94542.78;;;12.20;100.00
10097;BME280;5087;42.662;23.466;2023-04-25T07:16:36;94548.34;;;12.11;100.00
10097;BME280;5087;42.662;23.466;2023-04-25T07:19:04;94528.66;;;12.30;100.00
10097;BME280;5087;42.662;23.466;2023-04-25T07:21:31;94539.78;;;12.70;100.00
10097;BME280;5087;42.662;23.466;2023-04-25T07:24:01;94541.06;;;13.24;100.00
10097;BME280;5087;42.662;23.466;2023-04-25T07:26:35;94534.03;;;13.23;100.00
10097;BME280;5087;42.662;23.466;2023-04-25T07:29:21;94531.59;;;13.18;100.00
10097;BME280;5087;42.662;23.466;2023-04-25T07:31:49;94543.34;;;13.54;100.00
10097;BME280;5087;42.662;23.466;2023-04-25T07:34:16;94524.03;;;13.11;100.00
10097;BME280;5087;42.662;23.466;2023-04-25T07:36:43;94533.38;;;12.62;100.00
10097;BME280;5087;42.662;23.466;2023-04-25T07:39:11;94528.34;;;13.12;100.00
10097;BME280;5087;42.662;23.466;2023-04-25T07:41:40;94533.09;;;13.67;100.00
10097;BME280;5087;42.662;23.466;2023-04-25T07:44:12;94534.34;;;14.51;100.00
10097;BME280;5087;42.662;23.466;2023-04-25T07:46:40;94539.13;;;14.15;100.00
10097;BME280;5087;42.662;23.466;2023-04-25T07:49:08;94522.69;;;13.37;100.00
10097;BME280;5087;42.662;23.466;2023-04-25T07:51:36;94520.09;;;13.60;100.00
10097;BME280;5087;42.662;23.466;2023-04-25T07:54:08;94526.06;;;13.66;100.00
10097;BME280;5087;42.662;23.466;2023-04-25T07:56:44;94524.44;;;14.43;100.00
10097;BME280;5087;42.662;23.466;2023-04-25T07:59:12;94507.09;;;13.37;100.00
10097;BME280;5087;42.662;23.466;2023-04-25T08:01:41;94509.66;;;13.46;100.00
10097;BME280;5087;42.662;23.466;2023-04-25T08:04:10;94511.47;;;14.60;100.00
10097;BME280;5087;42.662;23.466;2023-04-25T08:06:52;94516.47;;;15.00;100.00
10097;BME280;5087;42.662;23.466;2023-04-25T08:09:24;94507.31;;;14.66;100.00
10097;BME280;5087;42.662;23.466;2023-04-25T08:11:54;94504.84;;;15.07;100.00
10097;BME280;5087;42.662;23.466;2023-04-25T08:14:26;94515.84;;;14.21;100.00
10097;BME280;5087;42.662;23.466;2023-04-25T08:16:54;94529.91;;;14.43;100.00
10097;BME280;5087;42.662;23.466;2023-04-25T08:19:22;94517.44;;;13.83;100.00
10097;BME280;5087;42.662;23.466;2023-04-25T08:21:50;94527.69;;;14.29;100.00
10097;BME280;5087;42.662;23.466;2023-04-25T08:24:22;94513.16;;;13.82;100.00
10097;BME280;5087;42.662;23.466;2023-04-25T08:26:50;94527.34;;;14.11;100.00
10097;BME280;5087;42.662;23.466;2023-04-25T08:29:22;94515.84;;;14.21;100.00
10097;BME280;5087;42.662;23.466;2023-04-25T08:31:51;94499.56;;;14.25;100.00
10097;BME280;5087;42.662;23.466;2023-04-25T08:34:19;94490.94;;;15.16;100.00
10097;BME280;5087;42.662;23.466;2023-04-25T08:36:53;94466.06;;;15.25;100.00
10097;BME280;5087;42.662;23.466;2023-04-25T08:39:33;94488.22;;;15.46;100.00
10097;BME280;5087;42.662;23.466;2023-04-25T08:42:27;94473.41;;;15.47;100.00
10097;BME280;5087;42.662;23.466;2023-04-25T08:44:57;94478.94;;;15.81;100.00
10097;BME280;5087;42.662;23.466;2023-04-25T08:47:33;94476.56;;;14.96;100.00
10097;BME280;5087;42.662;23.466;2023-04-25T08:50:02;94498.13;;;15.01;100.00
10097;BME280;5087;42.662;23.466;2023-04-25T08:52:35;94498.22;;;14.81;100.00
10097;BME280;5087;42.662;23.466;2023-04-25T08:55:05;94497.63;;;13.86;100.00
10097;BME280;5087;42.662;23.466;2023-04-25T08:57:34;94488.41;;;14.14;100.00
10097;BME280;5087;42.662;23.466;2023-04-25T09:00:04;94503.63;;;14.35;100.00
10097;BME280;5087;42.662;23.466;2023-04-25T09:02:35;94504.38;;;14.55;100.00
10097;BME280;5087;42.662;23.466;2023-04-25T09:05:03;94496.94;;;13.89;100.00
10097;BME280;5087;42.662;23.466;2023-04-25T09:07:30;94509.63;;;12.94;100.00
10097;BME280;5087;42.662;23.466;2023-04-25T09:09:58;94536.69;;;12.39;100.00
10097;BME280;5087;42.662;23.466;2023-04-25T09:12:29;94518.41;;;12.40;100.00
10097;BME280;5087;42.662;23.466;2023-04-25T09:15:06;94485.84;;;12.59;100.00
10097;BME280;5087;42.662;23.466;2023-04-25T09:17:55;94501.13;;;12.48;100.00
10097;BME280;5087;42.662;23.466;2023-04-25T09:20:24;94470.22;;;12.56;100.00
10097;BME280;5087;42.662;23.466;2023-04-25T09:23:01;94467.38;;;12.69;100.00
10097;BME280;5087;42.662;23.466;2023-04-25T09:25:34;94478.44;;;12.92;100.00
10097;BME280;5087;42.662;23.466;2023-04-25T09:28:04;94473.19;;;13.35;100.00
10097;BME280;5087;42.662;23.466;2023-04-25T09:30:34;94462.31;;;13.54;100.00
10097;BME280;5087;42.662;23.466;2023-04-25T09:33:27;94430.19;;;13.44;100.00
10097;BME280;5087;42.662;23.466;2023-04-25T09:36:01;94431.72;;;13.45;100.00
10097;BME280;5087;42.662;23.466;2023-04-25T09:39:02;94465.59;;;14.03;100.00
10097;BME280;5087;42.662;23.466;2023-04-25T09:41:37;94462.59;;;14.54;100.00
10097;BME280;5087;42.662;23.466;2023-04-25T09:44:05;94459.25;;;14.18;100.00
10097;BME280;5087;42.662;23.466;2023-04-25T09:46:37;94460.19;;;14.49;100.00
10097;BME280;5087;42.662;23.466;2023-04-25T09:49:08;94461.72;;;14.04;100.00
10097;BME280;5087;42.662;23.466;2023-04-25T09:51:54;94458.09;;;14.19;100.00
10097;BME280;5087;42.662;23.466;2023-04-25T09:54:23;94466.31;;;14.43;100.00
10097;BME280;5087;42.662;23.466;2023-04-25T09:57:10;94457.84;;;14.48;100.00
10097;BME280;5087;42.662;23.466;2023-04-25T09:59:39;94465.16;;;14.01;100.00
10097;BME280;5087;42.662;23.466;2023-04-25T10:02:11;94456.22;;;13.81;100.00
10097;BME280;5087;42.662;23.466;2023-04-25T10:04:40;94472.78;;;14.11;100.00
10097;BME280;5087;42.662;23.466;2023-04-25T10:07:18;94473.22;;;13.93;100.00
10097;BME280;5087;42.662;23.466;2023-04-25T10:09:48;94472.50;;;13.97;100.00
10097;BME280;5087;42.662;23.466;2023-04-25T10:12:16;94469.63;;;13.70;100.00
10097;BME280;5087;42.662;23.466;2023-04-25T10:14:44;94467.69;;;13.90;100.00
10097;BME280;5087;42.662;23.466;2023-04-25T10:17:14;94457.59;;;13.90;100.00
10097;BME280;5087;42.662;23.466;2023-04-25T10:19:44;94465.91;;;13.98;100.00
10097;BME280;5087;42.662;23.466;2023-04-25T10:22:17;94453.81;;;13.99;100.00
10097;BME280;5087;42.662;23.466;2023-04-25T10:24:46;94450.09;;;14.30;100.00
10097;BME280;5087;42.662;23.466;2023-04-25T10:27:14;94436.88;;;14.55;100.00
10097;BME280;5087;42.662;23.466;2023-04-25T10:29:45;94457.44;;;14.26;100.00
10097;BME280;5087;42.662;23.466;2023-04-25T10:32:13;94459.81;;;14.28;100.00
10097;BME280;5087;42.662;23.466;2023-04-25T10:34:44;94458.31;;;13.68;100.00
10097;BME280;5087;42.662;23.466;2023-04-25T10:37:14;94456.34;;;13.13;100.00
